Aérodrome :
LOGIN :

S'inscrire | Disclaimer

   EN    FR    IT 

 










Légende :    VFR   VFR Marginal   IFR   IFR Intensif   IFR Très Intensif
Visi : 
Plafond : 
>= 8 km
>= 3000ft
5 à 8 km
1000 à 3000 ft
1500m à 5 km
500 à 1000 ft
800 à 1500m
200 à 500 ft
< 800m
< 200 ft
Symboles :   Orages  Brouillard  Fortes neiges  Fortes précipitations  Vent > 20 kt
SIGMETs :   Divers  Orages  Givrage  Turbulence  Onde Orograph.  Cendres Volcan.






- Altitude de l'aérodrome : 1 ft


EGCK - Caernarfon

DERNIER METAR :
  • 281650Z AUTO 24013KT 9999 SCT024/// 14/09 Q1008

METARs EXPIRÉS :
  • 281620Z AUTO 23011KT 200V260 9999 BKN018/// BKN046/// 14/11 Q1008
  • 281550Z 23014KT 9999 VCSH SCT020 SCT030 14/10 Q1008
  • 281520Z 22011KT 9999 SCT020 BKN039 15/11 Q1008
  • 281450Z 22009KT 9999 SCT018 BKN032 15/11 Q1008
  • 281420Z 22009KT 9999 SCT018 BKN029 15/11 Q1008

TAF TAF EGCK
Valide du 28 à 15h jusqu'au 29 à 00h UTC


281404Z 2815/2824 21014KT 9999 SCT020
PROB30
TEMPO 2815/2821 7000 SHRA



MET'MAP, la Météo Aéronautique d'un coup d'oeil ! - Copyright ORBIFLY Décembre 2007 - Disclaimer

ORBIFLY MET'MAP TEAM :

Programmation & Développement : Alexandra Zaïnal
Sur une idée originale de : Baudouin d'Aumeries
Assistance à la programmation : Marc-Olivier Méhu
Soutien technique & logistique : Manuel Goepfert

Contact : metmap@orbifly.com




SOURCES & CREDITS :

   NOAA